Time;durP1;ratioP1;P1;durP2;ratioP2;P2;SDS_P1;SDS_P2;PMS_P1;PMS_P2;Temp;Humidity;BMP_temperature;BMP_pressure;BME280_temperature;BME280_humidity;BME280_pressure;Samples;Min_cycle;Max_cycle;Signal;HPM_P1;HPM_P2
2022/05/26 00:01:27;;;;;;;3.92;2.20;;;;;;;18.72;41.51;99809.98;1688148;85;21027;-58
2022/05/26 00:03:56;;;;;;;4.87;2.47;;;;;;;18.69;41.67;99809.42;1688202;85;20983;-59
2022/05/26 00:06:25;;;;;;;5.50;2.50;;;;;;;18.69;41.92;99806.64;1688241;85;21000;-58
2022/05/26 00:08:53;;;;;;;5.10;2.10;;;;;;;18.71;42.06;99800.83;1688183;85;21451;-58
2022/05/26 00:11:27;;;;;;;3.77;2.45;;;;;;;18.71;42.14;99798.60;1688180;85;21055;-58
2022/05/26 00:13:56;;;;;;;5.00;2.20;;;;;;;18.68;42.15;99789.70;1688156;85;20991;-57
2022/05/26 00:16:25;;;;;;;2.77;2.30;;;;;;;18.67;42.20;99781.09;1688074;85;21439;-58
2022/05/26 00:18:55;;;;;;;4.87;2.30;;;;;;;18.66;42.36;99779.97;1688120;85;21031;-58
2022/05/26 00:21:23;;;;;;;5.85;2.40;;;;;;;18.66;42.62;99780.81;1688313;85;21392;-58
2022/05/26 00:23:55;;;;;;;5.17;2.12;;;;;;;18.64;42.87;99783.02;1688514;85;21425;-58
2022/05/26 00:26:24;;;;;;;4.08;2.12;;;;;;;18.61;43.05;99785.45;1688112;85;20968;-58
2022/05/26 00:28:52;;;;;;;5.10;2.20;;;;;;;18.61;43.19;99782.16;1688055;85;20972;-58
2022/05/26 00:31:21;;;;;;;4.78;2.22;;;;;;;18.59;43.47;99778.78;1688048;85;21035;-57
2022/05/26 00:33:50;;;;;;;4.20;2.12;;;;;;;18.55;43.67;99783.19;1688218;85;20992;-58
2022/05/26 00:36:37;;;;;;;4.80;2.65;;;;;;;18.55;43.92;99776.80;1688143;85;21004;-58
2022/05/26 00:38:48;;;;;;;7.15;2.33;;;;;;;18.54;43.96;99772.36;1684951;85;20999;-58
2022/05/26 00:41:17;;;;;;;4.75;2.50;;;;;;;18.51;44.05;99771.50;1688185;85;21007;-57
2022/05/26 00:43:47;;;;;;;3.20;2.25;;;;;;;18.49;44.19;99773.16;1688100;85;21044;-58
2022/05/26 00:46:21;;;;;;;5.50;2.92;;;;;;;18.47;44.39;99765.64;1688117;85;20988;-59
2022/05/26 00:48:53;;;;;;;3.83;2.58;;;;;;;18.43;44.66;99765.89;1688155;85;21015;-60
2022/05/26 00:51:27;;;;;;;7.42;2.40;;;;;;;18.36;44.89;99755.56;1666491;85;21083;-58
2022/05/26 00:53:59;;;;;;;3.87;2.62;;;;;;;18.32;45.07;99760.81;1688043;85;21400;-57
2022/05/26 00:57:05;;;;;;;4.58;2.60;;;;;;;18.29;45.31;99753.02;1688107;85;21024;-58
2022/05/26 00:59:56;;;;;;;4.58;2.47;;;;;;;18.26;45.59;99752.70;1688069;85;21000;-58
2022/05/26 01:02:32;;;;;;;3.72;2.65;;;;;;;18.21;45.77;99744.34;1688365;85;21054;-58
2022/05/26 01:04:57;;;;;;;7.35;2.50;;;;;;;18.17;46.05;99741.78;1687791;85;21007;-58
2022/05/26 01:07:31;;;;;;;4.22;2.85;;;;;;;18.11;46.26;99737.29;1688038;85;21019;-57
2022/05/26 01:10:00;;;;;;;6.10;2.47;;;;;;;18.06;46.37;99740.30;1688089;85;21460;-58
2022/05/26 01:12:29;;;;;;;5.80;2.52;;;;;;;18.05;46.43;99737.80;1688082;85;21043;-59
2022/05/26 01:15:05;;;;;;;5.45;2.40;;;;;;;18.04;46.65;99741.11;1688324;85;21000;-58
2022/05/26 01:17:51;;;;;;;3.37;2.05;;;;;;;18.04;46.62;99740.28;1687652;85;21421;-57
2022/05/26 01:20:34;;;;;;;4.72;2.40;;;;;;;18.05;46.73;99735.86;1688186;85;21003;-57
2022/05/26 01:23:14;;;;;;;5.65;2.40;;;;;;;18.04;46.84;99732.80;1688149;85;21028;-58
2022/05/26 01:26:14;;;;;;;6.17;2.58;;;;;;;18.03;46.76;99723.36;1688375;85;21006;-57
2022/05/26 01:29:18;;;;;;;5.40;2.15;;;;;;;18.06;46.99;99717.29;1688177;85;21003;-59
2022/05/26 01:32:07;;;;;;;4.37;2.33;;;;;;;18.05;47.01;99719.22;1688226;85;21031;-58
2022/05/26 01:34:53;;;;;;;3.10;2.12;;;;;;;18.07;46.79;99714.80;1688270;85;21028;-59
2022/05/26 01:38:00;;;;;;;3.42;1.92;;;;;;;18.07;47.05;99716.19;1688130;85;21055;-57
2022/05/26 01:40:56;;;;;;;6.40;1.90;;;;;;;18.10;46.85;99721.75;1688158;85;20996;-57
2022/05/26 01:43:39;;;;;;;7.20;1.80;;;;;;;18.12;46.51;99723.16;1689079;85;21011;-58
2022/05/26 01:46:36;;;;;;;4.78;1.60;;;;;;;18.15;46.33;99715.70;1695637;85;21019;-58
2022/05/26 01:49:16;;;;;;;4.55;1.60;;;;;;;18.20;46.13;99712.14;1695470;85;21451;-58
2022/05/26 01:51:53;;;;;;;6.45;1.70;;;;;;;18.24;45.91;99707.77;1679272;85;21019;-57
2022/05/26 01:54:38;;;;;;;3.42;1.70;;;;;;;18.29;45.64;99706.42;1695596;85;21012;-58
2022/05/26 01:57:18;;;;;;;8.30;1.70;;;;;;;18.33;45.46;99699.23;1691108;85;21027;-58
2022/05/26 01:59:53;;;;;;;7.67;1.85;;;;;;;18.37;45.09;99698.44;1695243;85;21015;-58
2022/05/26 02:02:31;;;;;;;6.33;1.72;;;;;;;18.41;44.94;99689.59;1695397;85;21015;-58
2022/05/26 02:05:10;;;;;;;6.55;1.70;;;;;;;18.44;44.83;99688.50;1695383;85;20988;-57
2022/05/26 02:07:47;;;;;;;3.55;1.52;;;;;;;18.47;44.81;99689.91;1695503;85;21030;-57
2022/05/26 02:10:23;;;;;;;6.10;2.33;;;;;;;18.47;44.72;99681.03;1695485;85;20989;-58
2022/05/26 02:12:57;;;;;;;6.30;1.70;;;;;;;18.49;44.45;99680.22;1695050;85;20983;-58
2022/05/26 02:15:33;;;;;;;4.08;2.17;;;;;;;18.51;44.31;99681.34;1695350;85;21075;-57
2022/05/26 02:18:06;;;;;;;4.95;1.75;;;;;;;18.50;44.23;99676.89;1687518;84;21035;-57
2022/05/26 02:20:39;;;;;;;5.70;1.65;;;;;;;18.51;44.57;99680.78;1695488;85;21023;-57
2022/05/26 02:23:35;;;;;;;2.40;1.62;;;;;;;18.51;46.29;99680.78;1695533;84;21031;-58
2022/05/26 02:26:04;;;;;;;8.25;1.90;;;;;;;18.51;46.46;99673.02;1694004;85;21020;-58
2022/05/26 02:29:51;;;;;;;4.87;1.60;;;;;;;18.48;45.80;99663.84;1695563;84;20971;-58
2022/05/26 02:31:04;;;;;;;3.55;1.75;;;;;;;18.46;45.58;99675.20;1691837;85;21067;-57
2022/05/26 02:33:33;;;;;;;4.05;1.80;;;;;;;18.45;45.32;99676.30;1695339;85;20992;-58
2022/05/26 02:36:02;;;;;;;5.22;1.77;;;;;;;18.43;45.10;99671.58;1695605;85;21376;-58
2022/05/26 02:38:31;;;;;;;5.70;1.70;;;;;;;18.41;44.89;99669.62;1695335;85;21399;-57
2022/05/26 02:41:01;;;;;;;4.83;1.65;;;;;;;18.40;44.80;99672.11;1695355;85;20963;-57
2022/05/26 02:43:30;;;;;;;6.97;1.70;;;;;;;18.38;44.78;99669.60;1695539;84;21109;-57
2022/05/26 02:46:41;;;;;;;5.75;1.80;;;;;;;18.38;44.85;99679.31;1700906;84;21031;-57
2022/05/26 02:49:43;;;;;;;6.67;1.60;;;;;;;18.34;44.96;99677.34;1700904;83;20992;-57
2022/05/26 02:52:32;;;;;;;8.48;1.82;;;;;;;18.32;45.77;99685.09;1700973;83;20996;-59
2022/05/26 02:55:22;;;;;;;5.08;1.67;;;;;;;18.30;48.07;99686.74;1700860;84;20995;-57
2022/05/26 02:58:05;;;;;;;6.70;1.92;;;;;;;18.22;49.02;99698.33;1700835;84;21031;-58
2022/05/26 03:00:40;;;;;;;4.60;2.00;;;;;;;18.11;49.97;99690.16;1700833;84;21015;-59
2022/05/26 03:03:16;;;;;;;3.42;1.90;;;;;;;18.00;51.52;99687.30;1700638;84;21019;-58
2022/05/26 03:05:52;;;;;;;4.80;1.90;;;;;;;17.87;52.38;99687.73;1669455;86;21009;-58
2022/05/26 03:08:22;;;;;;;4.62;1.90;;;;;;;17.73;53.48;99676.80;1669126;86;20984;-57
2022/05/26 03:10:58;;;;;;;3.77;1.98;;;;;;;17.63;54.29;99671.12;1669380;86;21065;-58
2022/05/26 03:13:26;;;;;;;9.03;1.98;;;;;;;17.55;54.40;99670.17;1640609;86;21028;-58
2022/05/26 03:15:55;;;;;;;4.37;2.00;;;;;;;17.47;54.56;99659.56;1669477;86;21394;-59
2022/05/26 03:18:23;;;;;;;5.03;1.90;;;;;;;17.40;54.76;99667.53;1669340;86;21012;-59
2022/05/26 03:20:52;;;;;;;5.62;1.87;;;;;;;17.33;54.92;99666.06;1669496;86;21064;-56
2022/05/26 03:23:20;;;;;;;5.65;2.00;;;;;;;17.29;55.71;99657.44;1669273;86;21004;-58
2022/05/26 03:25:49;;;;;;;5.00;1.92;;;;;;;17.23;56.12;99659.86;1669377;86;21078;-57
2022/05/26 03:28:18;;;;;;;9.08;2.25;;;;;;;17.15;56.93;99657.55;1669501;86;21033;-57
2022/05/26 03:30:48;;;;;;;10.55;2.60;;;;;;;17.08;58.58;99661.91;1669518;86;21005;-58
2022/05/26 03:33:17;;;;;;;10.35;3.00;;;;;;;16.98;60.14;99659.56;1669302;86;21009;-57
2022/05/26 03:41:20;;;;;;;5.37;2.60;;;;;;;16.44;66.00;99675.91;1669388;86;20534;-57
2022/05/26 03:43:54;;;;;;;6.37;2.50;;;;;;;16.19;67.91;99679.09;1669351;86;21041;-57
2022/05/26 03:46:24;;;;;;;6.45;2.30;;;;;;;16.00;69.43;99668.84;1669287;86;21028;-57
2022/05/26 03:48:53;;;;;;;7.37;2.42;;;;;;;15.89;70.71;99667.00;1643239;86;21024;-57
2022/05/26 03:51:21;;;;;;;7.47;3.10;;;;;;;15.84;71.59;99667.75;1642372;86;21484;-57
2022/05/26 03:53:50;;;;;;;9.50;3.00;;;;;;;15.76;72.68;99681.13;1669343;86;20997;-57
2022/05/26 03:56:18;;;;;;;7.20;2.55;;;;;;;15.71;73.30;99675.52;1669504;86;21009;-57
2022/05/26 03:58:47;;;;;;;6.22;2.52;;;;;;;15.67;73.98;99661.91;1669378;86;20989;-57
2022/05/26 04:01:17;;;;;;;5.45;2.80;;;;;;;15.59;74.42;99671.41;1669245;86;21020;-57
2022/05/26 04:03:46;;;;;;;5.90;2.80;;;;;;;15.49;74.98;99665.13;1669437;86;20997;-57
2022/05/26 04:06:15;;;;;;;5.78;2.90;;;;;;;15.46;75.83;99665.62;1669319;86;21013;-57
2022/05/26 04:08:43;;;;;;;4.20;2.55;;;;;;;15.41;76.59;99666.91;1669347;86;21009;-58
2022/05/26 04:11:12;;;;;;;6.35;2.65;;;;;;;15.40;77.52;99668.53;1669334;86;21019;-59
2022/05/26 04:13:40;;;;;;;6.25;2.37;;;;;;;15.35;78.29;99667.89;1669289;86;21029;-58
2022/05/26 04:16:09;;;;;;;5.67;2.80;;;;;;;15.33;78.96;99664.54;1669253;86;21037;-58
2022/05/26 04:18:39;;;;;;;7.75;2.70;;;;;;;15.26;79.14;99680.95;1669425;86;21021;-58
2022/05/26 04:21:09;;;;;;;5.50;2.20;;;;;;;15.24;79.63;99685.34;1669271;86;21452;-58
2022/05/26 04:23:38;;;;;;;8.40;2.90;;;;;;;15.21;79.79;99679.77;1669349;86;21020;-59
2022/05/26 04:26:07;;;;;;;5.53;2.12;;;;;;;15.16;79.97;99674.15;1669308;86;21049;-59
2022/05/26 04:28:36;;;;;;;7.85;3.35;;;;;;;15.09;80.87;99689.17;1669308;86;21473;-59
2022/05/26 04:31:04;;;;;;;6.60;2.77;;;;;;;14.92;81.69;99684.92;1669230;86;21017;-58
2022/05/26 04:33:33;;;;;;;6.25;2.75;;;;;;;14.81;82.95;99686.63;1669266;86;21001;-59
2022/05/26 04:36:05;;;;;;;6.67;3.10;;;;;;;14.73;83.87;99691.69;1669309;86;20977;-57
2022/05/26 04:38:33;;;;;;;5.10;2.90;;;;;;;14.62;84.41;99694.75;1669226;86;21724;-59
2022/05/26 04:41:06;;;;;;;5.85;2.98;;;;;;;14.58;85.29;99696.31;1669219;86;21386;-62
2022/05/26 04:43:36;;;;;;;7.00;3.10;;;;;;;14.52;85.64;99692.61;1669295;86;21000;-58
2022/05/26 04:46:06;;;;;;;5.33;3.37;;;;;;;14.50;86.45;99687.03;1659366;86;21446;-57
2022/05/26 04:48:35;;;;;;;8.03;4.05;;;;;;;14.50;86.88;99685.66;1657080;86;21042;-58
2022/05/26 04:51:03;;;;;;;7.45;3.67;;;;;;;14.51;87.29;99685.95;1657097;86;21075;-58
2022/05/26 04:53:32;;;;;;;9.25;4.03;;;;;;;14.54;87.81;99683.55;1657032;86;21524;-57
2022/05/26 04:56:01;;;;;;;14.68;4.15;;;;;;;14.54;88.04;99679.42;1657333;86;21453;-56
2022/05/26 04:58:29;;;;;;;10.23;3.70;;;;;;;14.56;88.20;99682.77;1657134;86;21085;-57
2022/05/26 05:00:58;;;;;;;6.62;4.03;;;;;;;14.56;88.50;99674.50;1657213;86;21005;-58
2022/05/26 05:03:27;;;;;;;5.65;3.67;;;;;;;14.58;88.48;99684.75;1657150;86;21037;-57
2022/05/26 05:05:56;;;;;;;8.10;4.35;;;;;;;14.56;88.60;99685.53;1657143;86;21037;-59
2022/05/26 05:08:25;;;;;;;9.33;4.12;;;;;;;14.55;88.86;99689.91;1657279;86;21013;-59
2022/05/26 05:10:54;;;;;;;11.50;3.83;;;;;;;14.54;89.21;99686.85;1657140;86;21026;-57
2022/05/26 05:13:22;;;;;;;10.23;4.30;;;;;;;14.56;89.55;99688.28;1657097;86;21013;-58
2022/05/26 05:16:00;;;;;;;8.28;3.92;;;;;;;14.56;89.64;99688.28;1657121;86;21013;-58
2022/05/26 05:18:28;;;;;;;13.20;6.95;;;;;;;14.52;89.81;99698.12;1657217;86;21024;-59
2022/05/26 05:21:01;;;;;;;20.52;9.15;;;;;;;14.50;90.16;99698.06;1657124;86;20982;-58
2022/05/26 05:23:29;;;;;;;15.95;8.38;;;;;;;14.49;90.42;99704.11;1656772;86;21065;-57
2022/05/26 05:25:58;;;;;;;17.00;9.50;;;;;;;14.47;90.41;99702.14;1657145;86;21029;-58
2022/05/26 05:28:34;;;;;;;12.23;8.93;;;;;;;14.41;90.75;99706.36;1657010;86;21014;-57
2022/05/26 05:31:16;;;;;;;17.10;11.23;;;;;;;14.42;91.15;99708.04;1657375;86;21077;-58
2022/05/26 05:33:51;;;;;;;17.07;10.63;;;;;;;14.43;91.46;99701.48;1638691;86;21050;-59
2022/05/26 05:36:26;;;;;;;17.82;9.65;;;;;;;14.40;91.61;99703.30;1657231;86;21065;-59
2022/05/26 05:38:54;;;;;;;14.85;9.50;;;;;;;14.40;91.98;99702.77;1657121;86;21489;-58
2022/05/26 05:41:23;;;;;;;19.25;10.13;;;;;;;14.43;92.45;99709.20;1657041;86;21002;-59
2022/05/26 05:43:52;;;;;;;17.55;10.43;;;;;;;14.49;92.89;99710.16;1657172;86;21053;-58
2022/05/26 05:46:22;;;;;;;15.13;10.10;;;;;;;14.48;92.81;99709.87;1666441;86;21045;-58
2022/05/26 05:48:51;;;;;;;14.60;10.35;;;;;;;14.45;93.15;99710.34;1669364;86;21033;-58
2022/05/26 05:51:20;;;;;;;16.70;10.80;;;;;;;14.47;93.57;99715.92;1669341;86;21046;-58
2022/05/26 05:53:49;;;;;;;14.95;10.30;;;;;;;14.47;93.76;99713.16;1669314;86;20997;-58
2022/05/26 05:56:18;;;;;;;16.00;10.93;;;;;;;14.49;94.08;99713.77;1669343;86;21040;-57
2022/05/26 05:58:47;;;;;;;16.45;11.30;;;;;;;14.51;94.45;99708.01;1669329;86;21044;-60
2022/05/26 06:01:16;;;;;;;16.30;11.35;;;;;;;14.55;94.55;99707.83;1669277;86;21032;-58
2022/05/26 06:03:46;;;;;;;16.93;10.32;;;;;;;14.57;94.93;99710.64;1669327;86;21029;-58
2022/05/26 06:06:15;;;;;;;16.12;10.70;;;;;;;14.63;95.21;99708.84;1669302;86;21001;-59
2022/05/26 06:08:44;;;;;;;15.48;10.23;;;;;;;14.66;95.39;99716.63;1669378;86;20977;-58
2022/05/26 06:11:13;;;;;;;19.75;12.55;;;;;;;14.69;95.74;99720.28;1669251;86;21060;-58
2022/05/26 06:13:44;;;;;;;13.35;9.90;;;;;;;14.73;96.04;99722.86;1669354;86;21041;-58
2022/05/26 06:16:13;;;;;;;12.23;8.65;;;;;;;14.75;96.06;99733.10;1669471;86;21417;-58
2022/05/26 06:18:42;;;;;;;10.98;8.48;;;;;;;14.76;96.21;99731.19;1669331;86;21437;-58
2022/05/26 06:21:11;;;;;;;9.35;6.53;;;;;;;14.75;96.20;99738.62;1669492;86;21029;-58
2022/05/26 06:23:40;;;;;;;7.67;6.10;;;;;;;14.75;96.21;99739.16;1669488;86;21020;-58
2022/05/26 06:26:10;;;;;;;11.20;5.20;;;;;;;14.74;96.23;99744.38;1669326;86;21053;-58
2022/05/26 06:31:25;;;;;;;9.08;4.90;;;;;;;14.73;96.25;99743.53;1669419;86;21511;-58
2022/05/26 06:39:15;;;;;;;6.20;3.70;;;;;;;14.76;96.07;99745.81;1669346;86;21133;-59
2022/05/26 06:44:42;;;;;;;6.35;3.45;;;;;;;14.75;95.96;99731.72;1669354;86;21021;-59
2022/05/26 06:47:15;;;;;;;4.47;3.37;;;;;;;14.74;96.02;99740.23;1657247;86;21025;-59
2022/05/26 06:49:45;;;;;;;4.92;3.37;;;;;;;14.72;95.92;99742.40;1656607;86;21470;-58
2022/05/26 06:52:15;;;;;;;4.00;2.87;;;;;;;14.70;95.61;99746.77;1656619;87;21442;-58
2022/05/26 06:54:44;;;;;;;3.90;3.05;;;;;;;14.70;95.52;99748.69;1690260;85;21024;-60
2022/05/26 06:57:13;;;;;;;3.58;2.77;;;;;;;14.66;95.05;99756.61;1690158;85;21027;-59
2022/05/26 06:59:42;;;;;;;6.25;3.27;;;;;;;14.61;94.58;99766.14;1690164;85;21012;-58
2022/05/26 07:02:12;;;;;;;4.50;3.22;;;;;;;14.61;94.75;99769.44;1690118;85;21024;-59
2022/05/26 07:04:42;;;;;;;6.42;3.30;;;;;;;14.58;94.62;99783.16;1690082;85;21023;-59
2022/05/26 07:07:14;;;;;;;4.12;3.17;;;;;;;14.57;94.66;99798.02;1690081;85;21433;-61
2022/05/26 07:09:44;;;;;;;8.10;3.70;;;;;;;14.55;94.75;99791.38;1690111;85;21055;-59
2022/05/26 07:12:13;;;;;;;6.17;3.62;;;;;;;14.51;93.89;99797.59;1690158;85;21028;-57
2022/05/26 07:14:41;;;;;;;4.97;2.87;;;;;;;14.46;93.58;99785.91;1690095;85;21023;-58
2022/05/26 07:17:10;;;;;;;3.80;3.08;;;;;;;14.44;93.36;99777.58;1690011;85;21047;-60
2022/05/26 07:19:38;;;;;;;5.30;3.87;;;;;;;14.42;93.07;99783.84;1690304;85;20987;-58
2022/05/26 07:22:07;;;;;;;7.35;3.83;;;;;;;14.42;92.78;99787.97;1690102;85;21041;-58
2022/05/26 07:24:36;;;;;;;5.40;3.95;;;;;;;14.40;92.39;99784.08;1690106;85;21408;-58
2022/05/26 07:27:05;;;;;;;7.97;4.40;;;;;;;14.38;92.09;99782.63;1690120;85;20980;-59
2022/05/26 07:29:34;;;;;;;6.12;4.03;;;;;;;14.35;91.87;99781.19;1690027;85;20996;-59
2022/05/26 07:32:03;;;;;;;7.12;5.10;;;;;;;14.37;92.22;99792.81;1690135;85;20972;-58
2022/05/26 07:34:33;;;;;;;5.50;4.20;;;;;;;14.44;92.54;99791.36;1690256;85;21455;-59
2022/05/26 07:42:49;;;;;;;6.03;4.25;;;;;;;14.69;93.44;99791.97;1690074;85;21051;-57
2022/05/26 07:45:19;;;;;;;6.78;4.62;;;;;;;14.80;93.21;99791.14;1690461;84;20960;-58
2022/05/26 07:47:48;;;;;;;6.97;4.03;;;;;;;14.79;92.53;99789.45;1700812;84;20999;-58
2022/05/26 07:50:20;;;;;;;4.78;3.67;;;;;;;14.77;91.08;99799.05;1700880;84;21033;-59
2022/05/26 07:52:48;;;;;;;6.25;4.70;;;;;;;14.73;90.82;99787.66;1700749;84;21039;-57
2022/05/26 07:55:20;;;;;;;5.90;4.55;;;;;;;14.72;90.49;99795.63;1709416;83;20985;-60
2022/05/26 07:57:53;;;;;;;6.05;4.55;;;;;;;14.73;90.37;99804.20;1680310;84;21113;-59
2022/05/26 08:00:23;;;;;;;5.45;4.33;;;;;;;14.72;90.18;99795.63;1659714;85;21026;-59
2022/05/26 08:02:51;;;;;;;8.35;5.97;;;;;;;14.77;90.81;99800.43;1643631;86;21012;-59
2022/05/26 08:05:21;;;;;;;8.33;4.67;;;;;;;14.88;91.70;99799.05;1667227;86;21479;-60
2022/05/26 08:07:50;;;;;;;6.83;4.95;;;;;;;15.08;92.06;99793.18;1650021;87;21011;-60
2022/05/26 08:10:20;;;;;;;7.72;4.90;;;;;;;15.21;91.54;99795.68;1669490;86;21478;-58
2022/05/26 08:12:49;;;;;;;6.28;4.50;;;;;;;15.25;89.17;99807.07;1669085;86;20984;-58
2022/05/26 08:15:19;;;;;;;6.00;4.25;;;;;;;15.29;89.17;99806.05;1669078;86;20967;-59
2022/05/26 08:17:48;;;;;;;5.83;4.05;;;;;;;15.31;88.11;99814.38;1669077;86;20984;-58
2022/05/26 08:20:17;;;;;;;6.20;4.15;;;;;;;15.39;88.69;99819.52;1669191;86;21021;-57
2022/05/26 08:22:45;;;;;;;6.35;4.78;;;;;;;15.57;88.58;99817.67;1669392;86;21005;-59
2022/05/26 08:25:16;;;;;;;6.12;4.40;;;;;;;15.78;88.76;99814.30;1669441;86;21041;-58
2022/05/26 08:27:45;;;;;;;6.00;4.58;;;;;;;15.90;87.18;99822.00;1669266;86;21025;-58
2022/05/26 08:30:15;;;;;;;7.60;5.20;;;;;;;15.97;86.47;99828.22;1669167;86;21024;-59
2022/05/26 08:32:44;;;;;;;5.97;4.47;;;;;;;16.01;85.78;99824.41;1667015;86;20972;-59
2022/05/26 08:35:14;;;;;;;4.67;3.90;;;;;;;16.02;83.31;99828.86;1634076;88;21118;-59
2022/05/26 08:37:42;;;;;;;6.92;4.40;;;;;;;16.05;82.91;99838.03;1634016;88;21068;-59
2022/05/26 08:40:39;;;;;;;5.37;3.65;;;;;;;16.08;78.91;99841.14;1634033;87;21032;-58
2022/05/26 08:43:13;;;;;;;3.58;3.17;;;;;;;16.24;77.45;99828.98;1634030;87;20992;-58
2022/05/26 08:45:45;;;;;;;4.78;3.62;;;;;;;16.46;77.17;99832.73;1633097;86;21041;-58
2022/05/26 08:48:18;;;;;;;6.67;3.47;;;;;;;16.66;73.91;99831.72;1617003;89;21005;-59
2022/05/26 08:50:49;;;;;;;4.85;3.05;;;;;;;16.72;71.54;99836.25;1616998;89;21082;-59
2022/05/26 08:53:28;;;;;;;4.85;3.37;;;;;;;16.80;70.06;99834.45;1651480;87;21024;-56
2022/05/26 08:55:56;;;;;;;5.55;2.98;;;;;;;16.96;69.31;99830.56;1651655;87;21028;-60
2022/05/26 08:58:34;;;;;;;3.85;2.80;;;;;;;17.16;68.56;99833.63;1652931;86;21034;-60
2022/05/26 09:01:03;;;;;;;4.30;2.70;;;;;;;17.31;68.50;99829.69;1657099;86;20997;-58
2022/05/26 09:03:34;;;;;;;5.78;2.45;;;;;;;17.43;68.73;99832.34;1657197;86;21010;-57
2022/05/26 09:06:19;;;;;;;3.55;2.83;;;;;;;17.55;67.98;99831.67;1655976;86;21005;-59
2022/05/26 09:14:32;;;;;;;3.10;2.35;;;;;;;17.44;66.04;99833.47;1604259;89;21095;-59
2022/05/26 09:17:08;;;;;;;7.35;2.20;;;;;;;17.41;67.91;99835.38;1604145;89;21019;-58
2022/05/26 09:19:48;;;;;;;3.92;2.45;;;;;;;17.48;68.75;99839.88;1586493;89;21086;-59
2022/05/26 09:22:45;;;;;;;3.98;2.12;;;;;;;17.58;67.35;99833.13;1604607;89;21055;-60
2022/05/26 09:25:46;;;;;;;2.62;2.15;;;;;;;17.69;65.91;99842.72;1609011;89;20990;-59
2022/05/26 09:28:28;;;;;;;3.95;2.30;;;;;;;17.81;63.97;99826.51;1583806;90;21568;-59
2022/05/26 09:31:23;;;;;;;4.22;2.05;;;;;;;17.89;60.93;99830.20;1656805;86;21051;-59
2022/05/26 09:34:09;;;;;;;2.92;2.02;;;;;;;18.00;59.55;99848.08;1677656;84;21060;-59
2022/05/26 09:36:50;;;;;;;4.12;2.30;;;;;;;18.13;58.42;99837.67;1660354;86;21024;-61
2022/05/26 09:39:23;;;;;;;3.85;2.00;;;;;;;18.27;58.64;99838.97;1660325;86;21008;-60
2022/05/26 09:41:55;;;;;;;6.47;2.50;;;;;;;18.35;58.25;99839.88;1660411;86;21047;-58
2022/05/26 09:44:56;;;;;;;3.65;1.80;;;;;;;18.40;58.94;99834.37;1660416;86;21011;-58
2022/05/26 09:47:32;;;;;;;3.67;2.02;;;;;;;18.48;58.78;99821.97;1660250;86;21375;-60
2022/05/26 09:50:35;;;;;;;4.55;3.12;;;;;;;18.56;58.37;99830.64;1640829;86;21027;-58
2022/05/26 09:53:10;;;;;;;3.27;1.80;;;;;;;18.66;57.22;99837.70;1675600;85;21004;-60
2022/05/26 09:55:47;;;;;;;3.62;1.82;;;;;;;18.66;55.55;99835.47;1659805;85;20996;-58
2022/05/26 09:58:34;;;;;;;3.52;2.05;;;;;;;18.67;56.86;99835.77;1681190;85;20993;-59
2022/05/26 10:01:30;;;;;;;2.47;1.80;;;;;;;18.75;56.15;99838.59;1688271;85;20995;-59
2022/05/26 10:04:20;;;;;;;7.42;2.72;;;;;;;18.76;54.70;99838.33;1688287;85;20992;-60
2022/05/26 10:07:01;;;;;;;5.80;2.30;;;;;;;18.82;56.28;99840.59;1688035;85;21000;-60
2022/05/26 10:10:12;;;;;;;6.25;1.95;;;;;;;18.92;54.44;99842.94;1687974;83;21075;-58
2022/05/26 10:12:49;;;;;;;2.00;1.80;;;;;;;19.00;54.27;99837.44;1688116;85;21451;-59
2022/05/26 10:15:58;;;;;;;3.37;1.77;;;;;;;19.02;51.32;99833.00;1666512;85;21150;-59
2022/05/26 10:19:06;;;;;;;6.80;2.58;;;;;;;19.07;52.89;99833.87;1661971;86;21138;-58
2022/05/26 10:21:46;;;;;;;3.37;1.80;;;;;;;19.20;52.95;99837.57;1657214;86;21513;-59
2022/05/26 10:24:50;;;;;;;2.98;1.40;;;;;;;19.29;52.43;99850.40;1628905;88;21000;-59
2022/05/26 10:27:50;;;;;;;3.45;1.85;;;;;;;19.37;52.26;99844.89;1596381;89;21009;-59
2022/05/26 10:30:57;;;;;;;3.52;1.50;;;;;;;19.42;50.39;99840.75;1654123;85;21064;-58
2022/05/26 10:34:11;;;;;;;3.33;1.60;;;;;;;19.41;50.05;99844.63;1637044;86;21028;-59
2022/05/26 10:36:48;;;;;;;3.42;1.37;;;;;;;19.35;50.20;99851.27;1657063;86;21019;-60
2022/05/26 10:39:34;;;;;;;3.42;1.50;;;;;;;19.36;49.96;99847.38;1656844;86;21007;-61
2022/05/26 10:42:08;;;;;;;1.87;1.67;;;;;;;19.40;49.85;99847.97;1657160;86;20992;-60
2022/05/26 10:44:46;;;;;;;3.37;1.32;;;;;;;19.43;50.04;99860.48;1657173;86;20992;-61
2022/05/26 10:47:25;;;;;;;3.12;1.50;;;;;;;19.44;49.20;99852.43;1657004;85;21452;-59
2022/05/26 10:50:10;;;;;;;3.72;1.67;;;;;;;19.42;49.10;99855.48;1656968;86;21101;-58
2022/05/26 10:52:43;;;;;;;4.15;1.40;;;;;;;19.45;48.20;99854.10;1657043;86;20988;-58
2022/05/26 10:55:22;;;;;;;5.17;1.45;;;;;;;19.52;48.25;99877.83;1656822;86;21064;-60
2022/05/26 10:58:13;;;;;;;3.15;1.25;;;;;;;19.58;47.26;99857.84;1656931;86;21008;-62
2022/05/26 11:00:42;;;;;;;3.45;1.40;;;;;;;19.58;47.25;99855.07;1630244;88;21055;-59
2022/05/26 11:03:36;;;;;;;2.90;1.20;;;;;;;19.54;46.70;99862.27;1630284;86;21015;-60
2022/05/26 11:06:24;;;;;;;2.70;1.30;;;;;;;19.59;46.07;99870.08;1617307;86;21019;-59
2022/05/26 11:09:07;;;;;;;5.92;1.30;;;;;;;19.59;45.47;99863.69;1656414;85;21024;-59
2022/05/26 11:11:48;;;;;;;4.42;1.10;;;;;;;19.58;45.41;99867.58;1656973;86;21016;-61
2022/05/26 11:17:57;;;;;;;2.50;1.17;;;;;;;19.60;45.86;99860.64;1656964;85;20964;-58
2022/05/26 11:20:39;;;;;;;3.27;1.00;;;;;;;19.60;46.05;99871.76;1656982;85;21028;-58
2022/05/26 11:23:07;;;;;;;2.80;1.10;;;;;;;19.59;44.75;99874.80;1656921;86;21439;-59
2022/05/26 11:25:52;;;;;;;2.70;1.00;;;;;;;19.63;43.55;99853.70;1656985;85;21005;-60
2022/05/26 11:28:47;;;;;;;3.40;1.05;;;;;;;19.70;44.56;99859.85;1649277;86;20988;-59
2022/05/26 11:37:28;;;;;;;3.62;1.40;;;;;;;19.91;43.68;99860.22;1639323;86;21035;-60
2022/05/26 11:40:02;;;;;;;5.65;1.32;;;;;;;19.91;42.71;99866.34;1657252;86;21483;-59
2022/05/26 11:42:39;;;;;;;3.67;1.22;;;;;;;19.90;42.89;99880.80;1657028;86;21004;-59
2022/05/26 11:45:26;;;;;;;6.28;1.65;;;;;;;19.93;43.07;99871.06;1657223;86;20972;-60
2022/05/26 11:48:03;;;;;;;3.22;1.10;;;;;;;19.97;41.88;99875.53;1660830;85;21016;-57
2022/05/26 11:50:57;;;;;;;4.42;1.32;;;;;;;19.99;41.84;99859.41;1659633;86;21051;-59
2022/05/26 11:53:34;;;;;;;8.43;1.00;;;;;;;19.98;42.23;99859.97;1663876;86;21004;-60
2022/05/26 11:56:22;;;;;;;3.62;1.10;;;;;;;20.07;42.62;99869.45;1664036;86;20980;-58
2022/05/26 11:59:23;;;;;;;10.63;1.20;;;;;;;20.10;41.84;99868.06;1663984;86;21452;-59
2022/05/26 12:02:14;;;;;;;5.80;1.20;;;;;;;20.13;41.35;99862.79;1663918;86;21115;-58
2022/05/26 12:04:45;;;;;;;3.15;1.20;;;;;;;20.19;41.24;99851.16;1663822;86;20988;-59
2022/05/26 12:07:23;;;;;;;4.67;1.20;;;;;;;20.26;41.38;99857.30;1676399;85;21012;-58
2022/05/26 12:09:57;;;;;;;3.08;1.10;;;;;;;20.35;40.83;99858.98;1684788;85;21445;-59
2022/05/26 12:12:33;;;;;;;5.62;1.05;;;;;;;20.37;40.37;99870.12;1684862;85;21008;-58
2022/05/26 12:15:09;;;;;;;4.85;1.40;;;;;;;20.40;39.47;99873.77;1684710;85;21052;-61
2022/05/26 12:17:41;;;;;;;5.87;1.22;;;;;;;20.40;39.98;99865.42;1683725;85;21047;-61
2022/05/26 12:20:15;;;;;;;5.67;1.10;;;;;;;20.42;40.44;99861.81;1676594;85;21019;-60
2022/05/26 12:22:56;;;;;;;5.17;1.30;;;;;;;20.47;40.39;99861.81;1664021;85;21028;-59
2022/05/26 12:25:35;;;;;;;2.20;1.40;;;;;;;20.54;40.59;99873.52;1663594;86;20995;-60
2022/05/26 12:28:27;;;;;;;7.03;1.92;;;;;;;20.58;40.55;99876.03;1656781;86;21037;-59
2022/05/26 12:31:01;;;;;;;3.37;1.25;;;;;;;20.55;39.96;99864.05;1656848;86;21039;-60
2022/05/26 12:33:44;;;;;;;4.67;1.17;;;;;;;20.50;40.08;99864.60;1656697;86;21011;-60
2022/05/26 12:36:26;;;;;;;2.80;1.05;;;;;;;20.44;39.40;99876.84;1656691;86;21033;-59
2022/05/26 12:39:26;;;;;;;6.97;1.32;;;;;;;20.36;39.89;99876.80;1656710;86;21040;-58
2022/05/26 12:42:03;;;;;;;3.45;1.20;;;;;;;20.29;39.86;99873.44;1656756;86;21008;-60
2022/05/26 12:45:11;;;;;;;8.90;2.20;;;;;;;20.16;40.04;99880.36;1655731;86;21016;-60
2022/05/26 12:48:11;;;;;;;4.12;1.10;;;;;;;20.10;40.83;99883.36;1654182;85;21139;-59
2022/05/26 12:50:41;;;;;;;7.15;1.27;;;;;;;20.07;40.45;99885.30;1649588;86;21146;-58